createdAt,value
2019-05-30T00:00:14.493Z,26.72
2019-05-30T00:03:04.870Z,26.73
2019-05-30T00:06:08.448Z,26.72
2019-05-30T00:09:12.194Z,26.71
2019-05-30T00:12:15.694Z,26.69
2019-05-30T00:15:19.213Z,26.70
2019-05-30T00:18:22.713Z,26.69
2019-05-30T00:21:26.139Z,26.70
2019-05-30T00:24:29.601Z,26.67
2019-05-30T00:27:33.118Z,26.66
2019-05-30T00:30:36.533Z,26.66
2019-05-30T00:33:40.124Z,26.65
2019-05-30T00:36:43.648Z,26.64
2019-05-30T00:39:48.147Z,26.65
2019-05-30T00:42:51.558Z,26.62
2019-05-30T00:45:55.880Z,26.63
2019-05-30T00:49:00.187Z,26.64
2019-05-30T00:52:05.083Z,26.62
2019-05-30T00:55:08.698Z,26.58
2019-05-30T00:58:12.127Z,26.59
2019-05-30T01:01:15.726Z,26.61
2019-05-30T01:04:20.118Z,26.59
2019-05-30T01:07:23.547Z,26.58
2019-05-30T01:10:27.051Z,26.58
2019-05-30T01:13:30.555Z,26.58
2019-05-30T01:16:34.065Z,26.60
2019-05-30T01:19:37.706Z,26.58
2019-05-30T01:22:42.311Z,26.56
2019-05-30T01:25:45.784Z,26.55
2019-05-30T01:28:49.182Z,26.53
2019-05-30T01:31:52.787Z,26.52
2019-05-30T01:34:57.559Z,26.54
2019-05-30T01:38:02.257Z,26.55
2019-05-30T01:41:05.969Z,26.53
2019-05-30T01:44:09.525Z,26.53
2019-05-30T01:47:12.953Z,26.52
2019-05-30T01:50:18.034Z,26.53
2019-05-30T01:53:21.507Z,26.51
2019-05-30T01:56:26.124Z,26.50
2019-05-30T01:59:29.616Z,26.49
2019-05-30T02:02:34.154Z,26.49
2019-05-30T02:05:37.666Z,26.49
2019-05-30T02:08:41.166Z,26.48
2019-05-30T02:11:45.676Z,26.47
2019-05-30T02:14:49.173Z,26.47
2019-05-30T02:17:52.673Z,26.47
2019-05-30T02:20:56.088Z,26.44
2019-05-30T02:23:59.819Z,26.44
2019-05-30T02:27:04.165Z,26.43
2019-05-30T02:30:11.338Z,26.42
2019-05-30T02:33:13.457Z,26.42
2019-05-30T02:36:16.958Z,26.42
2019-05-30T02:39:20.458Z,26.43
2019-05-30T02:42:24.991Z,26.41
2019-05-30T02:45:28.406Z,26.42
2019-05-30T02:48:31.904Z,26.41
2019-05-30T02:51:36.503Z,26.40
2019-05-30T02:54:39.937Z,26.39
2019-05-30T02:57:43.346Z,26.40
2019-05-30T03:00:46.813Z,26.39
2019-05-30T03:03:50.349Z,26.39
2019-05-30T03:06:53.751Z,26.38
2019-05-30T03:09:57.212Z,26.37
2019-05-30T03:13:01.869Z,26.38
2019-05-30T03:16:07.443Z,26.37
2019-05-30T03:19:12.284Z,26.36
2019-05-30T03:22:16.128Z,26.35
2019-05-30T03:25:19.735Z,26.36
2019-05-30T03:28:23.350Z,26.35
2019-05-30T03:31:29.589Z,26.34
2019-05-30T03:34:32.304Z,26.33
2019-05-30T03:37:35.904Z,26.34
2019-05-30T03:40:39.320Z,26.31
2019-05-30T03:43:42.788Z,26.32
2019-05-30T03:46:51.521Z,26.30
2019-05-30T03:49:55.117Z,26.32
2019-05-30T03:52:58.622Z,26.30
2019-05-30T03:56:06.665Z,26.30
2019-05-30T03:59:22.349Z,26.31
2019-05-30T04:02:56.078Z,26.27
2019-05-30T04:05:51.066Z,26.29
2019-05-30T04:08:57.777Z,26.30
2019-05-30T04:12:14.985Z,26.31
2019-05-30T04:15:31.250Z,26.28
2019-05-30T04:18:34.719Z,26.27
2019-05-30T04:21:38.126Z,26.28
2019-05-30T04:24:41.616Z,26.27
2019-05-30T04:27:45.119Z,26.28
2019-05-30T04:30:48.535Z,26.29
2019-05-30T04:33:52.147Z,26.28
2019-05-30T04:36:55.623Z,26.29
2019-05-30T04:39:59.123Z,26.29
2019-05-30T04:43:02.532Z,26.29
2019-05-30T04:46:06.112Z,26.28
2019-05-30T04:49:12.174Z,26.27
2019-05-30T04:52:20.476Z,26.28
2019-05-30T04:55:23.130Z,26.28
2019-05-30T04:58:26.479Z,26.28
2019-05-30T05:01:29.991Z,26.27
2019-05-30T05:04:34.515Z,26.26
2019-05-30T05:07:39.042Z,26.29
2019-05-30T05:10:42.549Z,26.29
2019-05-30T05:13:46.032Z,26.30
2019-05-30T05:16:49.562Z,26.30
2019-05-30T05:19:53.053Z,26.30
2019-05-30T05:22:56.685Z,26.30
2019-05-30T05:26:01.231Z,26.30
2019-05-30T05:29:05.187Z,26.31
2019-05-30T05:32:08.680Z,26.29
2019-05-30T05:35:14.670Z,26.30
2019-05-30T05:38:18.330Z,26.30
2019-05-30T05:41:22.277Z,26.28
2019-05-30T05:44:26.069Z,26.27
2019-05-30T05:47:29.817Z,26.31
2019-05-30T05:50:33.441Z,26.29
2019-05-30T05:53:37.018Z,26.29
2019-05-30T05:56:40.565Z,26.30
2019-05-30T05:59:44.078Z,26.27
2019-05-30T06:02:47.585Z,26.29
2019-05-30T06:05:53.227Z,26.31
2019-05-30T06:08:56.221Z,26.37
2019-05-30T06:11:59.721Z,26.40
2019-05-30T06:15:03.407Z,26.41
2019-05-30T06:18:06.925Z,26.42
2019-05-30T06:21:10.437Z,26.43
2019-05-30T06:24:14.050Z,26.42
2019-05-30T06:27:17.825Z,26.45
2019-05-30T06:30:22.369Z,26.46
2019-05-30T06:33:27.128Z,26.46
2019-05-30T06:36:30.792Z,26.47
2019-05-30T06:39:34.360Z,26.47
2019-05-30T06:42:37.805Z,26.49
2019-05-30T06:45:41.676Z,26.48
2019-05-30T06:48:45.214Z,26.50
2019-05-30T06:51:48.722Z,26.51
2019-05-30T06:54:52.243Z,26.62
2019-05-30T06:57:55.732Z,26.73
2019-05-30T07:00:59.357Z,26.78
2019-05-30T07:04:03.214Z,26.80
2019-05-30T07:07:07.263Z,26.81
2019-05-30T07:10:11.527Z,26.81
2019-05-30T07:13:15.172Z,26.82
2019-05-30T07:16:18.766Z,26.82
2019-05-30T07:19:23.256Z,26.83
2019-05-30T07:22:27.753Z,26.82
2019-05-30T07:25:32.359Z,26.84
2019-05-30T07:28:36.012Z,26.83
2019-05-30T07:31:39.559Z,26.83
2019-05-30T07:34:45.949Z,26.84
2019-05-30T07:37:48.433Z,26.85
2019-05-30T07:40:52.924Z,26.85
2019-05-30T07:43:56.448Z,26.87
2019-05-30T07:46:59.927Z,26.87
2019-05-30T07:50:03.562Z,26.87
2019-05-30T07:53:07.197Z,26.89
2019-05-30T07:56:10.653Z,26.89
2019-05-30T07:59:14.137Z,26.91
2019-05-30T08:02:18.736Z,26.90
2019-05-30T08:05:24.623Z,26.89
2019-05-30T08:08:29.784Z,26.90
2019-05-30T08:11:33.288Z,26.91
2019-05-30T08:44:42.606Z,26.92
2019-05-30T08:47:46.101Z,26.92
2019-05-30T08:50:49.619Z,26.93
2019-05-30T08:53:53.179Z,26.93
2019-05-30T08:56:56.606Z,26.92
2019-05-30T09:00:00.105Z,26.94
2019-05-30T09:03:03.632Z,26.92
2019-05-30T09:06:07.103Z,26.92
2019-05-30T09:09:10.606Z,26.90
2019-05-30T09:12:15.127Z,26.91
2019-05-30T09:15:21.841Z,26.91
2019-05-30T09:18:24.126Z,26.90
2019-05-30T09:21:27.701Z,26.91
2019-05-30T09:24:32.288Z,26.92
2019-05-30T09:27:39.018Z,26.91
2019-05-30T09:30:43.542Z,26.91
2019-05-30T09:33:48.612Z,26.91
2019-05-30T09:36:52.408Z,26.93
2019-05-30T09:39:55.878Z,26.93
2019-05-30T09:42:59.517Z,26.95
2019-05-30T09:46:03.078Z,26.97
2019-05-30T09:49:06.570Z,26.98
2019-05-30T09:52:10.067Z,26.98
2019-05-30T09:55:14.957Z,26.99
2019-05-30T09:58:18.585Z,27.01
2019-05-30T10:01:22.009Z,27.03
2019-05-30T10:04:25.523Z,27.05
2019-05-30T10:07:29.011Z,27.05
2019-05-30T10:10:32.539Z,27.05
2019-05-30T10:13:37.038Z,27.07
2019-05-30T10:16:40.550Z,27.08
2019-05-30T10:19:45.390Z,27.09
2019-05-30T10:22:51.682Z,27.10
2019-05-30T10:25:54.728Z,27.13
2019-05-30T10:28:58.349Z,27.13
2019-05-30T10:32:01.936Z,27.15
2019-05-30T10:35:06.438Z,27.14
2019-05-30T10:38:09.970Z,27.17
2019-05-30T10:41:14.486Z,27.17
2019-05-30T10:44:17.981Z,27.19
2019-05-30T10:47:22.547Z,27.19
2019-05-30T10:50:26.021Z,27.23
2019-05-30T10:53:30.544Z,27.23
2019-05-30T10:56:35.067Z,27.26
2019-05-30T10:59:38.564Z,27.27
2019-05-30T11:02:42.067Z,27.28
2019-05-30T11:05:50.587Z,27.29
2019-05-30T11:08:54.782Z,27.29
2019-05-30T11:11:58.298Z,27.29
2019-05-30T11:15:04.152Z,27.31
2019-05-30T11:18:07.578Z,27.31
2019-05-30T11:21:11.058Z,27.30
2019-05-30T11:24:14.683Z,27.31
2019-05-30T11:27:18.421Z,27.31
2019-05-30T11:30:21.985Z,27.33
2019-05-30T11:33:25.479Z,27.37
2019-05-30T11:36:28.977Z,27.40
2019-05-30T11:39:34.524Z,27.41
2019-05-30T11:42:38.025Z,27.43
2019-05-30T11:45:41.658Z,27.45
2019-05-30T11:48:45.238Z,27.44
2019-05-30T11:51:49.687Z,27.47
2019-05-30T11:54:54.161Z,27.49
2019-05-30T11:57:58.508Z,27.48
2019-05-30T12:01:01.907Z,27.47
